createdAt,value
2023-05-22T00:01:44.204Z,4.83
2023-05-22T00:04:21.325Z,4.80
2023-05-22T00:06:50.639Z,4.77
2023-05-22T00:09:17.473Z,4.57
2023-05-22T00:11:51.270Z,4.10
2023-05-22T00:14:21.128Z,4.80
2023-05-22T00:16:51.821Z,4.60
2023-05-22T00:19:18.866Z,4.20
2023-05-22T00:21:49.019Z,4.40
2023-05-22T00:24:17.409Z,3.63
2023-05-22T00:26:45.203Z,4.10
2023-05-22T00:29:12.969Z,4.80
2023-05-22T00:31:39.744Z,4.20
2023-05-22T00:34:07.163Z,5.03
2023-05-22T00:36:34.029Z,5.00
2023-05-22T00:39:02.218Z,4.40
2023-05-22T00:41:29.022Z,4.77
2023-05-22T00:43:59.189Z,4.40
2023-05-22T00:46:26.444Z,4.37
2023-05-22T00:48:53.545Z,4.57
2023-05-22T00:51:22.075Z,4.70
2023-05-22T00:53:49.914Z,4.57
2023-05-22T00:56:17.876Z,3.90
2023-05-22T00:58:44.759Z,5.20
2023-05-22T01:01:12.262Z,4.83
2023-05-22T01:03:45.308Z,4.43
2023-05-22T01:06:14.519Z,4.30
2023-05-22T01:08:42.019Z,4.17
2023-05-22T01:11:33.529Z,5.47
2023-05-22T01:14:17.086Z,4.20
2023-05-22T01:17:05.495Z,5.17
2023-05-22T01:19:47.982Z,4.40
2023-05-22T01:22:43.928Z,5.03
2023-05-22T01:25:13.607Z,4.00
2023-05-22T01:27:58.975Z,4.80
2023-05-22T01:30:37.811Z,5.47
2023-05-22T01:33:08.930Z,4.60
2023-05-22T01:35:38.325Z,4.80
2023-05-22T01:38:08.145Z,4.63
2023-05-22T01:40:36.265Z,5.47
2023-05-22T01:43:03.426Z,3.40
2023-05-22T01:45:31.938Z,4.43
2023-05-22T01:48:00.263Z,4.03
2023-05-22T01:50:28.736Z,5.20
2023-05-22T01:53:13.309Z,4.20
2023-05-22T01:55:46.667Z,4.60
2023-05-22T01:58:39.664Z,4.03
2023-05-22T02:01:09.427Z,4.70
2023-05-22T02:03:37.609Z,4.07
2023-05-22T02:06:09.969Z,4.60
2023-05-22T02:08:39.680Z,3.80
2023-05-22T02:11:07.514Z,4.47
2023-05-22T02:13:35.444Z,4.78
2023-05-22T02:16:04.789Z,4.35
2023-05-22T02:18:34.599Z,3.92
2023-05-22T02:21:05.363Z,4.57
2023-05-22T02:23:32.500Z,4.68
2023-05-22T02:26:01.532Z,5.07
2023-05-22T02:28:28.374Z,4.25
2023-05-22T02:30:55.841Z,4.43
2023-05-22T02:33:22.675Z,4.60
2023-05-22T02:35:50.161Z,4.25
2023-05-22T02:38:17.143Z,6.32
2023-05-22T02:40:44.026Z,4.63
2023-05-22T02:43:10.863Z,3.60
2023-05-22T02:45:37.698Z,4.93
2023-05-22T02:48:04.930Z,4.03
2023-05-22T02:50:32.374Z,4.03
2023-05-22T02:52:59.139Z,3.87
2023-05-22T02:55:26.342Z,4.20
2023-05-22T02:57:56.388Z,4.43
2023-05-22T03:00:23.497Z,3.75
2023-05-22T03:02:50.821Z,4.30
2023-05-22T03:05:18.249Z,3.55
2023-05-22T03:07:48.320Z,4.50
2023-05-22T03:10:16.398Z,4.97
2023-05-22T03:12:44.679Z,4.00
2023-05-22T03:15:12.203Z,4.28
2023-05-22T03:17:39.998Z,4.20
2023-05-22T03:20:09.017Z,4.25
2023-05-22T03:22:36.625Z,4.32
2023-05-22T03:25:06.498Z,4.28
2023-05-22T03:27:33.721Z,4.10
2023-05-22T03:30:00.639Z,4.30
2023-05-22T03:32:29.756Z,4.50
2023-05-22T03:34:59.569Z,4.28
2023-05-22T03:37:27.179Z,4.35
2023-05-22T03:39:54.098Z,4.47
2023-05-22T03:42:25.723Z,4.72
2023-05-22T03:44:52.452Z,4.43
2023-05-22T03:47:21.107Z,4.57
2023-05-22T03:49:47.843Z,4.87
2023-05-22T03:52:17.557Z,4.60
2023-05-22T03:54:44.295Z,4.60
2023-05-22T03:57:11.235Z,4.23
2023-05-22T03:59:38.429Z,4.43
2023-05-22T04:02:05.949Z,4.03
2023-05-22T04:04:34.024Z,4.75
2023-05-22T04:07:03.103Z,5.27
2023-05-22T04:09:32.047Z,5.10
2023-05-22T04:11:59.100Z,4.60
2023-05-22T04:14:28.302Z,4.63
2023-05-22T04:16:56.316Z,5.30
2023-05-22T04:19:23.502Z,5.07
2023-05-22T04:21:50.671Z,5.00
2023-05-22T04:24:18.692Z,4.43
2023-05-22T04:26:47.327Z,4.30
2023-05-22T04:29:23.066Z,4.03
2023-05-22T04:31:56.776Z,4.40
2023-05-22T04:34:24.475Z,4.53
2023-05-22T04:36:55.570Z,4.00
2023-05-22T04:39:26.827Z,5.00
2023-05-22T04:41:56.545Z,4.00
2023-05-22T04:44:25.619Z,4.20
2023-05-22T04:46:53.199Z,3.73
2023-05-22T04:49:25.277Z,4.80
2023-05-22T04:51:54.417Z,3.90
2023-05-22T04:54:21.280Z,4.27
2023-05-22T04:56:49.742Z,4.03
2023-05-22T04:59:19.746Z,5.00
2023-05-22T05:04:36.162Z,3.70
2023-05-22T05:07:06.020Z,4.40
2023-05-22T05:09:34.862Z,3.40
2023-05-22T05:12:11.246Z,3.53
2023-05-22T05:14:41.756Z,3.60
2023-05-22T05:17:11.704Z,4.40
2023-05-22T05:19:45.229Z,4.00
2023-05-22T05:22:18.772Z,4.73
2023-05-22T05:24:54.777Z,4.23
2023-05-22T05:27:22.100Z,3.90
2023-05-22T05:29:53.692Z,4.37
2023-05-22T05:32:22.588Z,3.73
2023-05-22T05:34:53.121Z,4.23
2023-05-22T05:37:23.852Z,4.33
2023-05-22T05:40:12.432Z,3.97
2023-05-22T05:42:43.404Z,4.03
2023-05-22T05:45:11.497Z,4.10
2023-05-22T05:47:41.386Z,4.60
2023-05-22T05:50:11.935Z,4.53
2023-05-22T05:55:27.177Z,4.30
2023-05-22T05:57:54.899Z,4.50
2023-05-22T06:03:06.280Z,5.27
2023-05-22T06:05:42.149Z,4.53
2023-05-22T06:08:09.629Z,4.07
2023-05-22T06:10:49.805Z,3.83
2023-05-22T06:13:24.022Z,5.73
2023-05-22T06:15:51.126Z,4.10
2023-05-22T06:18:25.325Z,3.93
2023-05-22T06:20:55.344Z,4.50
2023-05-22T06:23:28.164Z,4.63
2023-05-22T06:26:00.451Z,3.53
2023-05-22T06:28:31.371Z,4.70
2023-05-22T06:31:02.315Z,4.30
2023-05-22T06:33:33.985Z,4.40
2023-05-22T06:36:15.503Z,3.87
2023-05-22T06:38:50.052Z,3.63
2023-05-22T06:41:28.661Z,3.47
2023-05-22T06:43:55.780Z,3.90
2023-05-22T06:46:26.294Z,3.73
2023-05-22T06:48:55.460Z,4.40
2023-05-22T06:51:35.576Z,4.60
2023-05-22T06:54:07.425Z,4.20
2023-05-22T06:56:35.938Z,3.50
2023-05-22T06:59:07.402Z,4.93
2023-05-22T07:01:35.169Z,4.40
2023-05-22T07:04:06.309Z,4.83
2023-05-22T07:06:34.893Z,4.27
2023-05-22T07:09:03.774Z,3.87
2023-05-22T07:11:31.093Z,4.23
2023-05-22T07:14:04.884Z,3.70
2023-05-22T07:16:32.198Z,3.83
2023-05-22T07:19:02.825Z,3.87
2023-05-22T07:21:32.613Z,4.20
2023-05-22T07:24:00.185Z,4.20
2023-05-22T07:26:34.327Z,3.83
2023-05-22T07:29:02.246Z,4.00
2023-05-22T07:31:38.523Z,4.20
2023-05-22T07:36:52.702Z,3.60
2023-05-22T07:39:19.668Z,4.50
2023-05-22T07:41:51.642Z,4.53
2023-05-22T07:44:34.869Z,4.57
2023-05-22T07:47:04.827Z,4.00
2023-05-22T07:49:32.863Z,3.93
2023-05-22T07:52:02.189Z,3.10
2023-05-22T07:54:31.645Z,4.30
2023-05-22T07:56:59.415Z,4.07
2023-05-22T07:59:35.809Z,3.50
2023-05-22T08:04:52.706Z,3.83
2023-05-22T08:07:19.886Z,3.80
2023-05-22T08:09:55.699Z,3.60
2023-05-22T08:12:23.543Z,3.80
2023-05-22T08:14:59.837Z,3.80
2023-05-22T08:17:28.225Z,3.30
2023-05-22T08:19:57.567Z,3.50
2023-05-22T08:22:26.257Z,3.23
2023-05-22T08:24:57.828Z,4.07
2023-05-22T08:27:25.434Z,3.20
2023-05-22T08:29:52.794Z,3.60
2023-05-22T08:32:23.248Z,3.70
2023-05-22T08:34:51.970Z,4.40
2023-05-22T08:37:18.983Z,3.73
2023-05-22T08:40:11.163Z,3.70
2023-05-22T08:42:44.728Z,3.30
2023-05-22T08:45:16.442Z,3.07
2023-05-22T08:47:46.278Z,3.17
2023-05-22T08:50:13.633Z,2.93
2023-05-22T08:52:53.881Z,3.77
2023-05-22T08:55:27.637Z,2.93
2023-05-22T08:57:57.344Z,3.20
2023-05-22T09:00:25.922Z,3.47
2023-05-22T09:02:56.275Z,3.20
2023-05-22T09:05:29.924Z,3.00
2023-05-22T09:08:08.451Z,3.33
2023-05-22T09:10:48.018Z,3.57
2023-05-22T09:13:36.557Z,2.87
2023-05-22T09:16:12.309Z,3.13
2023-05-22T09:18:41.805Z,3.20
2023-05-22T09:21:25.803Z,3.23
2023-05-22T09:24:02.449Z,3.60
2023-05-22T09:26:30.000Z,2.70
2023-05-22T09:29:01.863Z,2.87
2023-05-22T09:31:38.987Z,3.40
2023-05-22T09:34:10.862Z,2.73
2023-05-22T09:36:39.261Z,2.90
2023-05-22T09:39:14.304Z,2.57
2023-05-22T09:41:41.102Z,2.40
2023-05-22T09:46:58.476Z,2.93
2023-05-22T09:49:28.336Z,2.53
2023-05-22T09:51:59.274Z,3.10
2023-05-22T09:54:34.641Z,3.40
2023-05-22T09:57:04.944Z,2.77
2023-05-22T09:59:38.109Z,2.70
2023-05-22T10:02:12.751Z,2.67
2023-05-22T10:04:42.840Z,2.93
2023-05-22T10:07:13.556Z,2.60
2023-05-22T10:09:44.389Z,2.70
2023-05-22T10:12:20.218Z,3.10
2023-05-22T10:14:48.731Z,3.20
2023-05-22T10:17:21.616Z,2.60
2023-05-22T10:19:51.634Z,2.93
2023-05-22T10:22:21.336Z,2.90
2023-05-22T10:24:48.775Z,2.90
2023-05-22T10:27:16.794Z,2.67
2023-05-22T10:29:56.644Z,3.00
2023-05-22T10:32:40.656Z,2.70
2023-05-22T10:35:46.388Z,2.47
2023-05-22T10:38:47.580Z,3.37
2023-05-22T10:41:15.431Z,3.10
2023-05-22T10:43:45.822Z,3.00
2023-05-22T10:46:16.734Z,2.20
2023-05-22T10:48:49.863Z,2.90
2023-05-22T10:51:30.249Z,2.87
2023-05-22T10:54:13.548Z,2.87
2023-05-22T10:56:43.760Z,2.93
2023-05-22T10:59:12.937Z,3.10
2023-05-22T11:01:43.760Z,3.20
2023-05-22T11:04:14.477Z,2.40
2023-05-22T11:07:02.468Z,2.30
2023-05-22T11:09:49.179Z,2.43
2023-05-22T11:12:54.685Z,2.43
2023-05-22T11:15:33.310Z,2.83
2023-05-22T11:18:05.015Z,2.53
2023-05-22T11:20:40.104Z,2.73
2023-05-22T11:23:08.961Z,3.03
2023-05-22T11:25:38.901Z,3.00
2023-05-22T11:28:14.597Z,2.83
2023-05-22T11:30:46.076Z,3.00
2023-05-22T11:33:13.984Z,3.70
2023-05-22T11:35:47.364Z,2.83
2023-05-22T11:38:15.512Z,3.17
2023-05-22T11:40:44.102Z,2.40
2023-05-22T11:43:17.426Z,2.60
2023-05-22T11:45:45.013Z,3.20
2023-05-22T11:48:45.457Z,2.90
2023-05-22T11:51:22.112Z,2.70
2023-05-22T11:53:59.383Z,2.50
2023-05-22T11:56:28.748Z,3.83
2023-05-22T11:58:57.064Z,2.93
2023-05-22T12:01:30.442Z,2.50
2023-05-22T12:04:05.580Z,3.37
2023-05-22T12:06:43.347Z,2.93
2023-05-22T12:09:13.426Z,3.03
2023-05-22T12:11:50.147Z,3.23
2023-05-22T12:14:19.287Z,2.73
2023-05-22T12:16:52.073Z,2.80
2023-05-22T12:19:22.094Z,2.90
2023-05-22T12:21:56.259Z,2.80
2023-05-22T12:24:24.374Z,3.27
2023-05-22T12:26:56.152Z,3.20
2023-05-22T12:29:25.574Z,2.50
2023-05-22T12:31:56.062Z,2.40
2023-05-22T12:34:24.394Z,3.23
2023-05-22T12:36:59.517Z,3.47
2023-05-22T12:39:28.846Z,3.00
2023-05-22T12:44:46.423Z,2.80
2023-05-22T12:47:14.537Z,2.63
2023-05-22T12:49:46.139Z,3.10
2023-05-22T12:54:54.430Z,2.90
2023-05-22T12:57:25.393Z,3.47
2023-05-22T13:00:09.628Z,2.40
2023-05-22T13:02:47.348Z,3.03
2023-05-22T13:05:14.952Z,2.90
2023-05-22T13:10:31.058Z,3.03
2023-05-22T13:13:02.616Z,2.50
2023-05-22T13:15:31.189Z,2.53
2023-05-22T13:18:04.596Z,3.27
2023-05-22T13:20:43.910Z,3.47
2023-05-22T13:23:16.290Z,3.10
2023-05-22T13:25:44.085Z,2.60
2023-05-22T13:28:16.432Z,2.73
2023-05-22T13:30:50.986Z,3.77
2023-05-22T13:33:21.649Z,3.70
2023-05-22T13:41:11.674Z,3.53
2023-05-22T13:43:42.863Z,2.90
2023-05-22T13:46:16.642Z,2.87
2023-05-22T13:48:44.410Z,2.73
2023-05-22T13:51:12.046Z,4.37
2023-05-22T13:53:40.978Z,2.57
2023-05-22T13:56:14.716Z,2.90
2023-05-22T13:58:45.294Z,2.93
2023-05-22T14:01:15.543Z,3.10
2023-05-22T14:06:29.364Z,3.23
2023-05-22T14:09:00.948Z,2.87
2023-05-22T14:11:31.637Z,3.30
2023-05-22T14:14:01.756Z,3.20
2023-05-22T14:16:37.434Z,2.90
2023-05-22T14:19:26.195Z,2.90
2023-05-22T14:21:55.427Z,3.70
2023-05-22T14:24:23.507Z,2.37
2023-05-22T14:27:01.935Z,3.00
2023-05-22T14:29:32.026Z,2.80
2023-05-22T14:32:05.405Z,3.20
2023-05-22T14:34:39.281Z,3.00
2023-05-22T14:37:24.829Z,3.27
2023-05-22T14:39:58.827Z,3.77
2023-05-22T14:42:28.022Z,3.10
2023-05-22T14:44:56.488Z,3.00
2023-05-22T14:47:25.078Z,3.20
2023-05-22T14:50:17.634Z,3.53
2023-05-22T14:52:48.477Z,2.63
2023-05-22T14:55:19.008Z,3.47
2023-05-22T14:57:52.899Z,2.90
2023-05-22T15:00:21.981Z,2.70
2023-05-22T15:03:02.020Z,2.87
2023-05-22T15:05:35.830Z,3.00
2023-05-22T15:08:04.244Z,2.47
2023-05-22T15:10:31.069Z,2.53
2023-05-22T15:12:58.287Z,3.20
2023-05-22T15:15:26.817Z,3.43
2023-05-22T15:17:53.966Z,2.70
2023-05-22T15:20:21.238Z,3.00
2023-05-22T15:22:48.591Z,3.37
2023-05-22T15:25:17.103Z,2.80
2023-05-22T15:27:50.930Z,3.00
2023-05-22T15:30:19.096Z,3.10
2023-05-22T15:32:47.725Z,3.57
2023-05-22T15:35:14.875Z,2.90
2023-05-22T15:37:49.215Z,2.53
2023-05-22T15:40:19.418Z,2.90
2023-05-22T15:42:47.571Z,3.40
2023-05-22T15:45:34.925Z,3.20
2023-05-22T15:48:04.911Z,3.30
2023-05-22T15:50:34.678Z,2.87
2023-05-22T15:53:02.058Z,3.47
2023-05-22T15:55:31.287Z,3.27
2023-05-22T15:58:01.015Z,3.03
2023-05-22T16:00:29.730Z,3.20
2023-05-22T16:03:04.681Z,2.77
2023-05-22T16:05:36.467Z,2.60
2023-05-22T16:08:03.924Z,3.20
2023-05-22T16:10:35.982Z,2.83
2023-05-22T16:13:05.739Z,2.87
2023-05-22T16:15:37.194Z,2.67
2023-05-22T16:18:08.313Z,3.00
2023-05-22T16:20:37.536Z,2.97
2023-05-22T16:23:09.805Z,2.87
2023-05-22T16:25:37.366Z,2.93
2023-05-22T16:28:05.629Z,3.20
2023-05-22T16:30:32.725Z,3.17
2023-05-22T16:38:42.604Z,2.80
2023-05-22T16:41:30.118Z,2.63
2023-05-22T16:46:36.510Z,2.57
2023-05-22T16:49:11.827Z,2.70
2023-05-22T16:51:53.438Z,2.87
2023-05-22T16:54:25.530Z,3.47
2023-05-22T16:57:08.612Z,3.47
2023-05-22T16:59:51.748Z,2.90
2023-05-22T17:05:13.359Z,3.03
2023-05-22T17:08:04.221Z,3.83
2023-05-22T17:10:44.773Z,2.90
2023-05-22T17:13:32.109Z,3.17
2023-05-22T17:16:17.508Z,3.80
2023-05-22T17:18:44.933Z,4.20
2023-05-22T17:21:28.997Z,3.80
2023-05-22T17:29:36.718Z,3.47
2023-05-22T17:32:08.084Z,2.90
2023-05-22T17:37:18.774Z,3.70
2023-05-22T17:39:51.859Z,3.47
2023-05-22T17:42:19.302Z,3.80
2023-05-22T17:44:49.615Z,3.57
2023-05-22T17:47:25.010Z,2.87
2023-05-22T17:50:14.119Z,3.93
2023-05-22T17:53:05.565Z,3.20
2023-05-22T17:58:17.666Z,3.60
2023-05-22T18:00:54.649Z,3.30
2023-05-22T18:06:04.137Z,3.30
2023-05-22T18:08:35.345Z,2.97
2023-05-22T18:11:03.114Z,4.50
2023-05-22T18:16:23.695Z,3.47
2023-05-22T18:18:54.056Z,2.77
2023-05-22T18:21:38.273Z,3.23
2023-05-22T18:24:06.700Z,3.57
2023-05-22T18:26:35.895Z,3.30
2023-05-22T18:29:08.471Z,2.73
2023-05-22T18:32:11.275Z,3.63
2023-05-22T18:34:46.642Z,3.80
2023-05-22T18:37:18.757Z,3.90
2023-05-22T18:40:02.468Z,3.60
2023-05-22T18:42:37.395Z,4.00
2023-05-22T18:45:08.385Z,3.60
2023-05-22T18:47:41.320Z,4.10
2023-05-22T18:52:53.837Z,4.00
2023-05-22T18:55:23.172Z,5.03
2023-05-22T19:00:39.668Z,3.67
2023-05-22T19:03:31.021Z,3.00
2023-05-22T19:11:43.729Z,4.93
2023-05-22T19:19:43.189Z,4.20
2023-05-22T19:22:34.303Z,4.20
2023-05-22T19:25:03.548Z,4.10
2023-05-22T19:27:34.525Z,3.70
2023-05-22T19:30:10.249Z,4.90
2023-05-22T19:32:37.914Z,4.77
2023-05-22T19:35:08.487Z,4.60
2023-05-22T19:37:36.156Z,4.70
2023-05-22T19:40:07.404Z,4.50
2023-05-22T19:42:38.282Z,4.80
2023-05-22T19:45:13.875Z,4.77
2023-05-22T19:47:44.291Z,5.20
2023-05-22T19:50:14.161Z,5.07
2023-05-22T19:52:41.775Z,5.50
2023-05-22T19:55:09.893Z,4.30
2023-05-22T19:57:37.830Z,4.80
2023-05-22T20:00:11.337Z,4.80
2023-05-22T20:02:44.481Z,5.70
2023-05-22T20:05:25.446Z,5.33
2023-05-22T20:07:52.821Z,5.60
2023-05-22T20:10:26.547Z,5.30
2023-05-22T20:12:57.447Z,5.00
2023-05-22T20:15:25.201Z,3.83
2023-05-22T20:17:55.066Z,4.57
2023-05-22T20:20:25.683Z,5.03
2023-05-22T20:22:54.489Z,4.67
2023-05-22T20:25:23.718Z,4.90
2023-05-22T20:27:52.472Z,5.23
2023-05-22T20:30:23.346Z,4.93
2023-05-22T20:32:52.715Z,5.77
2023-05-22T20:35:22.587Z,4.10
2023-05-22T20:37:53.790Z,5.30
2023-05-22T20:40:28.379Z,5.33
2023-05-22T20:42:58.170Z,4.60
2023-05-22T20:45:28.437Z,4.43
2023-05-22T20:47:57.925Z,4.70
2023-05-22T20:50:28.073Z,4.63
2023-05-22T20:53:01.987Z,4.40
2023-05-22T20:55:29.618Z,4.60
2023-05-22T20:57:57.582Z,4.23
2023-05-22T21:00:24.427Z,4.47
2023-05-22T21:02:57.526Z,4.70
2023-05-22T21:05:26.272Z,4.30
2023-05-22T21:07:56.210Z,4.37
2023-05-22T21:10:29.124Z,5.37
2023-05-22T21:12:58.082Z,4.47
2023-05-22T21:15:27.887Z,4.40
2023-05-22T21:17:54.769Z,5.77
2023-05-22T21:20:26.917Z,5.00
2023-05-22T21:22:54.863Z,5.17
2023-05-22T21:25:26.746Z,5.20
2023-05-22T21:27:58.326Z,4.40
2023-05-22T21:30:26.020Z,5.00
2023-05-22T21:32:52.895Z,4.70
2023-05-22T21:35:24.824Z,5.60
2023-05-22T21:37:54.764Z,5.27
2023-05-22T21:40:22.102Z,5.20
2023-05-22T21:42:51.661Z,4.87
2023-05-22T21:45:18.845Z,4.93
2023-05-22T21:47:46.097Z,7.40
2023-05-22T21:50:16.207Z,5.13
2023-05-22T21:52:44.921Z,5.40
2023-05-22T21:55:14.945Z,5.50
2023-05-22T21:57:42.513Z,4.97
2023-05-22T22:00:12.481Z,5.83
2023-05-22T22:02:44.359Z,5.93
2023-05-22T22:05:14.683Z,5.60
2023-05-22T22:07:46.593Z,6.10
2023-05-22T22:10:13.757Z,5.23
2023-05-22T22:12:41.722Z,5.27
2023-05-22T22:15:12.832Z,4.80
2023-05-22T22:17:40.988Z,5.30
2023-05-22T22:20:09.794Z,5.73
2023-05-22T22:22:44.033Z,4.77
2023-05-22T22:25:12.987Z,4.60
2023-05-22T22:27:40.387Z,4.43
2023-05-22T22:30:12.881Z,4.83
2023-05-22T22:32:39.748Z,5.00
2023-05-22T22:35:07.431Z,4.67
2023-05-22T22:37:36.392Z,4.20
2023-05-22T22:40:06.342Z,4.37
2023-05-22T22:42:43.904Z,4.70
2023-05-22T22:45:14.827Z,4.40
2023-05-22T22:47:42.201Z,5.17
2023-05-22T22:50:13.619Z,4.73
2023-05-22T22:52:55.191Z,4.93
2023-05-22T22:55:27.421Z,4.30
2023-05-22T22:57:58.643Z,5.07
2023-05-22T23:00:27.803Z,5.47
2023-05-22T23:02:58.971Z,5.03
2023-05-22T23:05:28.375Z,5.70
2023-05-22T23:07:55.634Z,5.90
2023-05-22T23:10:24.980Z,5.13
2023-05-22T23:12:52.669Z,4.97
2023-05-22T23:15:21.644Z,4.80
2023-05-22T23:17:51.858Z,4.87
2023-05-22T23:20:19.384Z,5.70
2023-05-22T23:22:46.622Z,5.10
2023-05-22T23:25:14.045Z,5.23
2023-05-22T23:27:42.453Z,5.70
2023-05-22T23:30:12.549Z,5.10
2023-05-22T23:32:42.611Z,5.87
2023-05-22T23:35:13.864Z,5.57
2023-05-22T23:37:41.953Z,4.90
2023-05-22T23:40:10.872Z,4.90
2023-05-22T23:42:39.151Z,7.47
2023-05-22T23:45:06.383Z,6.20
2023-05-22T23:47:33.597Z,7.30
2023-05-22T23:50:00.566Z,5.40
2023-05-22T23:52:28.773Z,5.30
2023-05-22T23:54:57.979Z,5.60
2023-05-22T23:57:31.837Z,6.00
2023-05-22T23:59:59.209Z,5.50
